Flight Track Log - Related Links

Times and Time Zones

All times are in EDT time to prevent confusion due to time zone crossing. See the UPS1331 flight status page for this flight to view local times or setup timezone preferences in your user account.

Time Position Orientation Groundspeed Altitude Reporting Facility
EDT Latitude Longitude Course Direction KTS MPH feet Rate Location/Type
Tue 10:19:46 PM 25.8010 -80.3010 180° South 17 20  Level FlightAware ADS-B
Tue 10:21:12 PM 25.8010 -80.2970 90° East 78 90 450 Level FlightAware ADS-B
Tue 10:21:46 PM 25.8020 -80.2710 88° East 155 178 900 1,800 Climbing FlightAware ADS-B
Tue 10:22:02 PM 25.8040 -80.2580 80° East 167 192 1,500 1,636 Climbing FlightAware ADS-B
Tue 10:22:30 PM 25.8080 -80.2300 81° East 210 242 2,100 1,962 Climbing FlightAware ADS-B
Tue 10:22:54 PM 25.8110 -80.2030 83° East 226 260 3,200 2,488 Climbing FlightAware ADS-B
Tue 10:23:11 PM 25.8130 -80.1840 83° East 239 275 3,800 2,167 Climbing FlightAware ADS-B
Tue 10:23:30 PM 25.8170 -80.1590 80° East 263 303 4,500 2,571 Climbing FlightAware ADS-B
Tue 10:23:46 PM 25.8270 -80.1410 58° Northeast 273 314 5,300 3,000 Climbing FlightAware ADS-B
Tue 10:24:00 PM 25.8430 -80.1300 32° Northeast 277 319 6,000 3,000 Climbing FlightAware ADS-B
Tue 10:24:12 PM 25.8580 -80.1260 13° North 281 323 6,600 2,757 Climbing FlightAware ADS-B
Tue 10:24:37 PM 25.8870 -80.1370 341° North 280 322 7,700 3,164 Climbing FlightAware ADS-B
Tue 10:25:07 PM 25.9160 -80.1690 315° West 283 326 9,500 2,743 Climbing FlightAware ADS-B
Tue 10:25:47 PM 25.9530 -80.2140 312° West 309 356 10,900 1,835 Climbing FlightAware ADS-B
Tue 10:26:32 PM 26.0120 -80.2640 323° Northwest 369 425 12,100 2,188 Climbing FlightAware ADS-B
Tue 10:27:12 PM 26.0710 -80.3080 326° Northwest 401 461 14,000 2,894 Climbing FlightAware ADS-B
Tue 10:27:57 PM 26.1420 -80.3620 326° Northwest 414 476 16,200 3,106 Climbing FlightAware ADS-B
Tue 10:28:37 PM 26.2080 -80.4130 325° Northwest 426 490 18,400 3,075 Climbing FlightAware ADS-B
Tue 10:29:17 PM 26.2790 -80.4530 333° Northwest 439 505 20,300 2,700 Climbing FlightAware ADS-B
Tue 10:29:57 PM 26.3550 -80.4890 337° Northwest 451 519 22,000 2,471 Climbing FlightAware ADS-B
Tue 10:30:42 PM 26.4450 -80.5240 341° North 454 522 23,800 2,333 Climbing FlightAware ADS-B
Tue 10:31:27 PM 26.5360 -80.5540 344° North 471 542 25,500 2,188 Climbing FlightAware ADS-B
Tue 10:32:07 PM 26.6240 -80.5850 343° North 483 556 26,900 2,025 Climbing FlightAware ADS-B
Tue 10:32:47 PM 26.7100 -80.6120 344° North 482 555 28,200 2,175 Climbing FlightAware ADS-B
Tue 10:33:27 PM 26.7980 -80.6400 344° North 489 563 29,800 2,475 Climbing FlightAware ADS-B
Tue 10:34:07 PM 26.8840 -80.6690 343° North 483 556 31,500 2,302 Climbing FlightAware ADS-B
Tue 10:34:53 PM 26.9810 -80.7000 344° North 472 543 33,100 1,976 Climbing FlightAware ADS-B
Tue 10:35:32 PM 27.0670 -80.7280 344° North 473 544 34,300 1,643 Climbing FlightAware ADS-B
Tue 10:36:17 PM 27.1590 -80.7580 344° North 473 544 35,400 1,010 Climbing FlightAware ADS-B
Tue 10:37:13 PM 27.2820 -80.7990 343° North 473 544 36,000 424 Climbing FlightAware ADS-B
Tue 10:37:42 PM 27.3440 -80.8190 344° North 472 543 36,000  Level FlightAware ADS-B
Tue 10:38:25 PM 27.4350 -80.8490 344° North 471 542 36,000  Level FlightAware ADS-B
Tue 10:39:10 PM 27.5330 -80.8810 344° North 473 544 36,000  Level FlightAware ADS-B
Tue 10:39:40 PM 27.5950 -80.9010 344° North 473 544 36,000  Level FlightAware ADS-B
Tue 10:40:25 PM 27.6930 -80.9340 343° North 473 544 36,000  Level FlightAware ADS-B
Tue 10:41:10 PM 27.7890 -80.9650 344° North 473 544 36,000  Level FlightAware ADS-B
Tue 10:41:50 PM 27.8760 -80.9940 344° North 473 544 36,000  Level FlightAware ADS-B
Tue 10:42:30 PM 27.9590 -81.0220 343° North 473 544 36,000  Level FlightAware ADS-B
Tue 10:43:10 PM 28.0480 -81.0510 344° North 482 555 36,000  Level FlightAware ADS-B
Tue 10:43:55 PM 28.1440 -81.0830 344° North 482 555 36,000  Level FlightAware ADS-B
Tue 10:44:31 PM 28.2190 -81.1080 344° North 482 555 36,000  Level FlightAware ADS-B
Tue 10:45:10 PM 28.3040 -81.1360 344° North 473 544 36,000  Level FlightAware ADS-B
Tue 10:45:57 PM 28.4010 -81.1690 343° North 470 541 36,000  Level FlightAware ADS-B
Tue 10:46:30 PM 28.4750 -81.1930 344° North 466 536 36,000  Level FlightAware ADS-B
Tue 10:47:11 PM 28.5600 -81.2220 343° North 471 542 36,000  Level FlightAware ADS-B
Tue 10:47:51 PM 28.6430 -81.2500 344° North 469 540 36,000  Level FlightAware ADS-B
Tue 10:48:36 PM 28.7370 -81.2810 344° North 467 537 36,000 424 Level FlightAware ADS-B
Tue 10:49:16 PM 28.8210 -81.3100 343° North 469 540 36,600 750 Climbing FlightAware ADS-B
Tue 10:49:56 PM 28.9030 -81.3370 344° North 470 541 37,000 279 Climbing FlightAware ADS-B
Tue 10:50:42 PM 28.9980 -81.3690 344° North 469 540 37,000  Level FlightAware ADS-B
Tue 10:51:22 PM 29.0840 -81.3980 344° North 468 539 37,000  Level FlightAware ADS-B
Tue 10:51:58 PM 29.1550 -81.4220 344° North 466 536 37,000  Level FlightAware ADS-B
Tue 10:52:52 PM 29.2710 -81.4620 343° North 466 536 37,000  Level FlightAware ADS-B
Tue 10:53:32 PM 29.3450 -81.4870 344° North 466 536 37,000  Level FlightAware ADS-B
Tue 10:54:12 PM 29.4310 -81.5170 343° North 457 526 37,000  Level FlightAware ADS-B
Tue 10:54:52 PM 29.5180 -81.5460 344° North 466 536 37,000  Level FlightAware ADS-B
Tue 10:55:31 PM 28.9480 -81.3520 163° South 470 541 37,000  Level FlightAware ADS-B
Tue 10:56:10 PM 28.9990 -81.3700 343° North 470 541 37,000  Level FlightAware ADS-B
Tue 10:56:53 PM 29.7670 -81.6310 344° North 456 525 37,000  Level FlightAware ADS-B
Tue 10:57:46 PM 29.8610 -81.6640 343° North 464 534 37,000  Level FlightAware ADS-B
Tue 10:58:25 PM 29.9440 -81.6920 344° North 463 533 37,000  Level FlightAware ADS-B
Tue 10:59:13 PM 29.9740 -81.7030 342° North 463 533 37,000  Level FlightAware ADS-B
Tue 10:59:49 PM 30.1210 -81.7530 344° North 464 534 37,000  Level FlightAware ADS-B
Tue 11:00:31 PM 30.2140 -81.7860 343° North 464 534 37,000  Level FlightAware ADS-B
Tue 11:01:25 PM 30.2480 -81.7980 343° North 466 536 37,000  Level FlightAware ADS-B
Tue 11:02:21 PM 30.2970 -81.8150 343° North 466 536 37,000  Level FlightAware ADS-B
Tue 11:02:57 PM 30.3600 -81.8370 343° North 466 536 37,000  Level FlightAware ADS-B
Tue 11:03:34 PM 30.4250 -81.8600 343° North 466 536 37,000  Level FlightAware ADS-B
Tue 11:04:22 PM 30.5090 -81.8900 343° North 466 536 37,000  Level FlightAware ADS-B
Tue 11:05:00 PM 30.5760 -81.9140 343° North 466 536 37,000  Level FlightAware ADS-B
Tue 11:05:46 PM 30.6560 -81.9420 343° North 466 536 37,000  Level FlightAware ADS-B
Tue 11:06:22 PM 30.7200 -81.9650 343° North 466 536 37,000  Level FlightAware ADS-B
Tue 11:07:11 PM 30.8050 -81.9950 343° North 466 536 37,000  Level FlightAware ADS-B
Tue 11:07:47 PM 30.8680 -82.0180 343° North 466 536 37,000  Level FlightAware ADS-B
Tue 11:08:23 PM 30.9320 -82.0400 344° North 466 536 37,000  Level FlightAware ADS-B
Tue 11:09:12 PM 31.0170 -82.0710 343° North 466 536 37,000  Level FlightAware ADS-B
Tue 11:09:48 PM 31.0810 -82.0930 344° North 466 536 37,000  Level FlightAware ADS-B
Tue 11:10:24 PM 31.1440 -82.1160 343° North 466 536 37,000  Level FlightAware ADS-B
Tue 11:11:29 PM 31.2580 -82.1570 343° North 466 536 37,000 -336 Level FlightAware ADS-B
Tue 11:16:21 PM 32.2260 -82.4990 343° North 479 551 35,000 -365 Descending FlightAware ADS-B
Tue 11:16:58 PM 32.2940 -82.5250 342° North 479 551 35,000  Level FlightAware ADS-B
Tue 11:17:36 PM 32.3780 -82.5540 344° North 477 549 35,000  Level FlightAware ADS-B
Tue 11:18:21 PM 32.4820 -82.5920 343° North 475 547 35,000  Level FlightAware ADS-B
Tue 11:19:07 PM 32.5780 -82.6270 343° North 474 545 35,000 628 Level FlightAware ADS-B
Tue 11:19:47 PM 32.6530 -82.6790 330° Northwest 480 552 35,900 1,350 Climbing FlightAware ADS-B
Tue 11:20:27 PM 32.7100 -82.7600 310° West 481 554 36,800 815 Climbing FlightAware ADS-B
Tue 11:21:08 PM 32.7670 -82.8450 309° West 485 558 37,000 150 Climbing FlightAware ADS-B
Tue 11:21:47 PM 32.8200 -82.9230 309° West 482 555 37,000  Level FlightAware ADS-B
Tue 11:22:27 PM 32.8790 -83.0080 310° West 481 554 37,000  Level FlightAware ADS-B
Tue 11:23:11 PM 32.9380 -83.1000 307° West 482 555 37,000  Level FlightAware ADS-B
Tue 11:23:47 PM 32.9860 -83.1780 306° West 482 555 37,000  Level FlightAware ADS-B
Tue 11:24:27 PM 33.0390 -83.2630 307° West 481 554 37,000  Level FlightAware ADS-B
Tue 11:25:07 PM 33.0900 -83.3480 306° West 482 555 37,000  Level FlightAware ADS-B
Tue 11:25:51 PM 33.1490 -83.4440 306° West 482 555 37,000  Level FlightAware ADS-B
Tue 11:26:33 PM 33.2020 -83.5370 304° West 483 556 37,000  Level FlightAware ADS-B
Tue 11:27:17 PM 33.2530 -83.6340 302° West 485 558 37,000  Level FlightAware ADS-B
Tue 11:27:57 PM 33.3010 -83.7270 302° West 485 558 37,000  Level FlightAware ADS-B
Tue 11:28:34 PM 33.3420 -83.8080 301° West 484 557 37,000  Level FlightAware ADS-B
Tue 11:29:13 PM 33.3910 -83.9000 303° West 484 557 37,000  Level FlightAware ADS-B
Tue 11:29:37 PM 33.4184 -83.9539 301° West 486 559 37,000 312 Level FlightAware ADS-B
Tue 11:30:30 PM 33.4868 -84.0716 305° West 483 556 37,400 484 Climbing FlightAware ADS-B
Tue 11:30:39 PM 33.5007 -84.0858 320° Northwest 478 550 37,500 909 Climbing FlightAware ADS-B
Tue 11:31:03 PM 33.5456 -84.1178 329° Northwest 473 544 37,900 909 Climbing FlightAware ADS-B
Tue 11:31:12 PM 33.5657 -84.1269 339° North 471 542 38,000 261 Climbing FlightAware ADS-B
Tue 11:31:26 PM 33.5938 -84.1348 347° North 469 540 38,000  Level FlightAware ADS-B
Tue 11:31:36 PM 33.6153 -84.1373 354° North 468 539 38,000  Level FlightAware ADS-B
Tue 11:31:43 PM 33.6316 -84.1372 360° North 467 537 38,000  Level FlightAware ADS-B
Tue 11:32:13 PM 33.6961 -84.1308 North 466 536 38,000  Level FlightAware ADS-B
Tue 11:32:49 PM 33.7733 -84.1224 North 464 534 38,000  Level FlightAware ADS-B
Tue 11:33:20 PM 33.8386 -84.1152 North 464 534 38,000  Level FlightAware ADS-B
Tue 11:34:11 PM 33.9478 -84.1035 North 467 537 38,000  Level FlightAware ADS-B
Tue 11:35:02 PM 34.0570 -84.0920 North 469 540 38,000  Level FlightAware ADS-B
Tue 11:35:31 PM 34.1228 -84.0855 North 473 544 38,000  Level FlightAware ADS-B
Tue 11:36:00 PM 34.1853 -84.0803 North 475 547 38,000  Level FlightAware ADS-B
Tue 11:36:06 PM 34.1989 -84.0804 360° North 476 548 38,000  Level FlightAware ADS-B
Tue 11:36:24 PM 34.2386 -84.0835 356° North 479 551 38,000  Level FlightAware ADS-B
Tue 11:36:41 PM 34.2754 -84.0906 351° North 480 552 38,000  Level FlightAware ADS-B
Tue 11:37:13 PM 34.3442 -84.1075 349° North 478 550 38,000  Level FlightAware ADS-B
Tue 11:37:45 PM 34.4138 -84.1249 348° North 478 550 38,000  Level FlightAware ADS-B
Tue 11:38:15 PM 34.4794 -84.1413 348° North 478 550 38,000  Level FlightAware ADS-B
Tue 11:38:45 PM 34.5453 -84.1576 348° North 480 552 38,000  Level FlightAware ADS-B
Tue 11:39:16 PM 34.6125 -84.1743 348° North 481 554 38,000  Level FlightAware ADS-B
Tue 11:39:48 PM 34.6822 -84.1916 348° North 482 555 38,000  Level FlightAware ADS-B
Tue 11:40:19 PM 34.7491 -84.2080 349° North 482 555 38,000  Level FlightAware ADS-B
Tue 11:40:49 PM 34.8148 -84.2242 349° North 483 556 38,000  Level FlightAware ADS-B
Tue 11:41:20 PM 34.8823 -84.2409 349° North 482 555 38,000  Level FlightAware ADS-B
Tue 11:41:52 PM 34.9537 -84.2586 349° North 482 555 38,000  Level FlightAware ADS-B
Tue 11:42:23 PM 35.0192 -84.2749 348° North 478 550 38,000  Level FlightAware ADS-B
Tue 11:42:53 PM 35.0854 -84.2913 349° North 476 548 38,000  Level FlightAware ADS-B
Tue 11:43:24 PM 35.1519 -84.3079 348° North 474 545 38,000  Level FlightAware ADS-B
Tue 11:43:55 PM 35.2171 -84.3242 348° North 473 544 38,000  Level FlightAware ADS-B
Tue 11:44:32 PM 35.2969 -84.3441 348° North 473 544 38,000  Level FlightAware ADS-B
Tue 11:45:02 PM 35.3619 -84.3605 348° North 472 543 38,000  Level FlightAware ADS-B
Tue 11:45:33 PM 35.4269 -84.3768 348° North 473 544 38,000  Level FlightAware ADS-B
Tue 11:46:03 PM 35.4921 -84.3931 348° North 472 543 38,000  Level FlightAware ADS-B
Tue 11:46:33 PM 35.5574 -84.4097 348° North 473 544 38,000  Level FlightAware ADS-B
Tue 11:47:04 PM 35.6221 -84.4260 348° North 474 545 38,000  Level FlightAware ADS-B
Tue 11:47:34 PM 35.6875 -84.4425 348° North 474 545 38,000  Level FlightAware ADS-B
Tue 11:48:04 PM 35.7522 -84.4589 348° North 475 547 38,000  Level FlightAware ADS-B
Tue 11:48:34 PM 35.8173 -84.4754 348° North 475 547 38,000  Level FlightAware ADS-B
Tue 11:49:05 PM 35.8823 -84.4919 348° North 476 548 38,000  Level FlightAware ADS-B
Tue 11:49:36 PM 35.9496 -84.5091 348° North 475 547 38,000 -197 Level FlightAware ADS-B
Tue 11:50:06 PM 36.0152 -84.5257 348° North 474 545 37,800 -1,500 Descending FlightAware ADS-B
Tue 11:50:44 PM 36.0962 -84.5465 348° North 472 543 36,300 -2,696 Descending FlightAware ADS-B
Tue 11:51:15 PM 36.1626 -84.5635 348° North 482 555 34,700 -3,091 Descending FlightAware ADS-B
Tue 11:51:50 PM 36.2412 -84.5837 348° North 490 564 32,900 -2,862 Descending FlightAware ADS-B
Tue 11:52:20 PM 36.3082 -84.6007 348° North 486 559 31,600 -2,471 Descending FlightAware ADS-B
Tue 11:52:58 PM 36.3864 -84.6211 348° North 451 519 30,100 -1,412 Descending FlightAware ADS-B
Tue 11:53:28 PM 36.4481 -84.6369 348° North 439 505 30,000 -545 Descending FlightAware ADS-B
Tue 11:54:04 PM 36.5191 -84.6552 348° North 438 504 29,500 -896 Descending FlightAware ADS-B
Tue 11:54:35 PM 36.5804 -84.6712 348° North 437 503 29,000 -1,082 Descending FlightAware ADS-B
Tue 11:55:05 PM 36.6397 -84.6864 348° North 432 497 28,400 -1,574 Descending FlightAware ADS-B
Tue 11:55:36 PM 36.6993 -84.7019 348° North 429 494 27,400 -1,574 Descending FlightAware ADS-B
Tue 11:56:06 PM 36.7575 -84.7171 348° North 414 476 26,800 -1,377 Descending FlightAware ADS-B
Tue 11:56:37 PM 36.8143 -84.7319 348° North 407 468 26,000 -1,967 Descending FlightAware ADS-B
Tue 11:57:07 PM 36.8704 -84.7466 348° North 398 458 24,800 -2,951 Descending FlightAware ADS-B
Tue 11:57:38 PM 36.9246 -84.7607 348° North 392 451 23,000 -3,443 Descending FlightAware ADS-B
Tue 11:58:08 PM 36.9781 -84.7746 348° North 381 438 21,300 -3,246 Descending FlightAware ADS-B
Tue 11:58:39 PM 37.0301 -84.7882 348° North 369 425 19,700 -2,906 Descending FlightAware ADS-B
Tue 11:59:12 PM 37.0848 -84.8025 348° North 366 421 18,200 -2,294 Descending FlightAware ADS-B
Tue 11:59:47 PM 37.1423 -84.8177 348° North 366 421 17,100 -1,826 Descending FlightAware ADS-B
Wed 12:00:21 AM 37.1970 -84.8320 348° North 356 410 16,100 -1,299 Descending FlightAware ADS-B
Wed 12:01:24 AM 37.2910 -84.8570 348° North 346 398 15,000 -660 Descending FlightAware ADS-B
Wed 12:02:01 AM 37.3400 -84.8700 348° North 346 398 15,000 -2,354 Level FlightAware ADS-B
Wed 12:02:43 AM 37.4200 -84.8910 348° North 343 395 11,900 -2,519 Descending FlightAware ADS-B
Wed 12:03:22 AM 37.4740 -84.9050 348° North 339 390 11,600 -207 Descending FlightAware ADS-B
Wed 12:04:10 AM 37.5360 -84.9220 348° North 339 390 11,600  Level FlightAware ADS-B
Wed 12:04:44 AM 37.5810 -84.9340 348° North 339 390 11,600 -533 Level FlightAware ADS-B
Wed 12:07:10 AM 37.7650 -85.1060 324° Northwest 321 369 10,000 -545 Descending FlightAware ADS-B
Wed 12:07:40 AM 37.7940 -85.1460 313° West 286 329 10,000 -409 Level FlightAware ADS-B
Wed 12:07:54 AM 37.8080 -85.1660 312° West 282 325 9,700 -1,350 Descending FlightAware ADS-B
Wed 12:08:20 AM 37.8280 -85.1940 312° West 282 325 9,100 -1,067 Descending FlightAware ADS-B
Wed 12:08:39 AM 37.8460 -85.2190 312° West 284 327 8,900 -226 Descending FlightAware ADS-B
Wed 12:09:13 AM 37.8790 -85.2640 313° West 285 328 8,900  Level FlightAware ADS-B
Wed 12:09:35 AM 37.8980 -85.2900 313° West 285 328 8,900  Level FlightAware ADS-B
Wed 12:09:53 AM 37.9130 -85.3120 311° West 285 328 8,900 -133 Level FlightAware ADS-B
Wed 12:10:20 AM 37.9350 -85.3420 313° West 285 328 8,800 -462 Descending FlightAware ADS-B
Wed 12:10:45 AM 37.9550 -85.3700 312° West 280 322 8,500 -1,200 Descending FlightAware ADS-B
Wed 12:11:00 AM 37.9710 -85.3920 313° West 280 322 8,000 -1,364 Descending FlightAware ADS-B
Wed 12:11:29 AM 37.9880 -85.4160 312° West 281 323 7,500 -1,100 Descending FlightAware ADS-B
Wed 12:12:00 AM 38.0230 -85.4650 312° West 273 314 6,900 -643 Descending FlightAware ADS-B
Wed 12:12:25 AM 38.0420 -85.4920 312° West 251 289 6,900  Level FlightAware ADS-B
Wed 12:12:54 AM 38.0650 -85.5230 313° West 233 268 6,900  Level FlightAware ADS-B
Wed 12:13:10 AM 38.0770 -85.5400 312° West 234 269 6,900  Level FlightAware ADS-B
Wed 12:13:30 AM 38.0910 -85.5600 312° West 234 269 6,900 -245 Level FlightAware ADS-B
Wed 12:13:59 AM 38.1170 -85.5840 324° Northwest 234 269 6,700 -655 Descending FlightAware ADS-B
Wed 12:14:25 AM 38.1420 -85.5960 339° North 232 267 6,300 -1,050 Descending FlightAware ADS-B
Wed 12:14:39 AM 38.1590 -85.6040 340° North 229 264 6,000 -986 Descending FlightAware ADS-B
Wed 12:16:45 AM 38.2860 -85.6540 343° North 232 267 4,000 -857 Descending FlightAware ADS-B
Wed 12:17:06 AM 38.3080 -85.6620 344° North 233 268 3,900 -115 Descending FlightAware ADS-B
Wed 12:17:37 AM 38.3410 -85.6740 344° North 234 269 3,900  Level FlightAware ADS-B
Wed 12:17:53 AM 38.3570 -85.6800 344° North 233 268 3,900  Level FlightAware ADS-B
Wed 12:18:22 AM 38.3850 -85.6930 340° North 205 236 3,900  Level FlightAware ADS-B
Wed 12:18:37 AM 38.3920 -85.7090 299° West 187 215 3,900  Level FlightAware ADS-B
Wed 12:19:19 AM 38.3890 -85.7510 265° West 179 206 3,900  Level FlightAware ADS-B
Wed 12:19:31 AM 38.3830 -85.7610 233° Southwest 177 204 3,900 -429 Level FlightAware ADS-B
Wed 12:19:47 AM 38.3700 -85.7680 203° Southwest 174 200 3,700 -955 Descending FlightAware ADS-B
Wed 12:20:15 AM 38.3500 -85.7780 201° Southwest 172 198 3,200 -1,059 Descending FlightAware ADS-B
Wed 12:20:55 AM 38.3180 -85.7760 177° South 175 201 2,500 -889 Descending FlightAware ADS-B
Wed 12:21:09 AM 38.3070 -85.7720 164° South 160 184 2,400 -167 Descending FlightAware ADS-B
Wed 12:21:31 AM 38.2910 -85.7670 166° South 155 178 2,400 -367 Level FlightAware ADS-B
Wed 12:21:58 AM 38.2740 -85.7610 165° South 140 161 2,100 -643 Descending FlightAware ADS-B
Wed 12:22:27 AM 38.2560 -85.7550 165° South 138 159 1,800 -643 Descending FlightAware ADS-B
Wed 12:22:54 AM 38.2390 -85.7490 165° South 136 157 1,500 -750 Descending FlightAware ADS-B
Wed 12:23:23 AM 38.2220 -85.7430 165° South 135 155 1,100 -735 Descending FlightAware ADS-B
Wed 12:23:43 AM 38.2090 -85.7390 166° South 137 158 900 -652 Descending FlightAware ADS-B
Wed 12:24:09 AM 38.1930 -85.7330 164° South 138 159 600 -769 Descending FlightAware ADS-B
Wed 12:24:22 AM 38.1850 -85.7310 169° South 139 160 400 -923 Descending FlightAware ADS-B
Wed 12:24:57 AM 38.1670 -85.7240 163° South 135 155 -686 Descending FlightAware ADS-B
Wed 12:26:03 AM 38.1710 -85.7270 329° Northwest 16 18  Level FlightAware ADS-B
Wed 12:27:29 AM 38.1760 -85.7340 312° West 27 31  Level FlightAware ADS-B
Wed 12:27:55 AM 38.1780 -85.7390 297° West 31 36  Level FlightAware ADS-B
Wed 12:28:45 AM 38.1770 -85.7430 252° West 16 18  Level FlightAware ADS-B
Wed 12:29:13 AM 38.1750 -85.7420 159° South 22 25  Level FlightAware ADS-B
Wed 12:29:37 AM 38.1720 -85.7410 165° South 26 30  Level FlightAware ADS-B
Wed 12:30:11 AM 38.1690 -85.7400 165° South 34 39  Level FlightAware ADS-B

Login

Don't have an account? Register now (free) for customized features, flight alerts, and more!